sensor_id;sensor_type;location;lat;lon;timestamp;P1;durP1;ratioP1;P2;durP2;ratioP2
63010;SDS011;49100;48.842;2.166;2022-10-16T00:01:59;12.00;;;8.75;;
63010;SDS011;49100;48.842;2.166;2022-10-16T00:04:44;8.75;;;7.00;;
63010;SDS011;49100;48.842;2.166;2022-10-16T00:07:29;9.50;;;6.75;;
63010;SDS011;49100;48.842;2.166;2022-10-16T00:10:13;7.25;;;5.50;;
63010;SDS011;49100;48.842;2.166;2022-10-16T00:12:58;7.75;;;6.00;;
63010;SDS011;49100;48.842;2.166;2022-10-16T00:15:43;11.00;;;7.00;;
63010;SDS011;49100;48.842;2.166;2022-10-16T00:18:28;10.25;;;7.00;;
63010;SDS011;49100;48.842;2.166;2022-10-16T00:21:15;8.00;;;6.75;;
63010;SDS011;49100;48.842;2.166;2022-10-16T00:24:03;10.25;;;6.50;;
63010;SDS011;49100;48.842;2.166;2022-10-16T00:26:49;10.00;;;7.00;;
63010;SDS011;49100;48.842;2.166;2022-10-16T00:29:34;9.00;;;7.00;;
63010;SDS011;49100;48.842;2.166;2022-10-16T00:32:19;7.75;;;7.75;;
63010;SDS011;49100;48.842;2.166;2022-10-16T00:35:04;15.00;;;7.00;;
63010;SDS011;49100;48.842;2.166;2022-10-16T00:37:49;11.00;;;6.25;;
63010;SDS011;49100;48.842;2.166;2022-10-16T00:40:33;5.00;;;5.00;;
63010;SDS011;49100;48.842;2.166;2022-10-16T00:49:23;7.50;;;6.25;;
63010;SDS011;49100;48.842;2.166;2022-10-16T00:52:07;10.50;;;7.00;;
63010;SDS011;49100;48.842;2.166;2022-10-16T00:54:52;8.75;;;6.25;;
63010;SDS011;49100;48.842;2.166;2022-10-16T00:57:38;10.75;;;7.75;;
63010;SDS011;49100;48.842;2.166;2022-10-16T01:00:25;7.00;;;7.00;;
63010;SDS011;49100;48.842;2.166;2022-10-16T01:03:23;6.75;;;6.50;;
63010;SDS011;49100;48.842;2.166;2022-10-16T01:09:12;11.50;;;6.00;;
63010;SDS011;49100;48.842;2.166;2022-10-16T01:12:10;7.00;;;5.75;;
63010;SDS011;49100;48.842;2.166;2022-10-16T01:15:01;11.50;;;5.25;;
63010;SDS011;49100;48.842;2.166;2022-10-16T01:21:10;5.75;;;5.75;;
63010;SDS011;49100;48.842;2.166;2022-10-16T01:32:59;9.50;;;6.25;;
63010;SDS011;49100;48.842;2.166;2022-10-16T01:35:52;10.25;;;7.25;;
63010;SDS011;49100;48.842;2.166;2022-10-16T01:38:39;7.50;;;6.00;;
63010;SDS011;49100;48.842;2.166;2022-10-16T01:41:26;7.75;;;5.50;;
63010;SDS011;49100;48.842;2.166;2022-10-16T01:44:17;5.75;;;5.75;;
63010;SDS011;49100;48.842;2.166;2022-10-16T01:47:03;8.25;;;6.25;;
63010;SDS011;49100;48.842;2.166;2022-10-16T01:49:49;7.00;;;6.25;;
63010;SDS011;49100;48.842;2.166;2022-10-16T01:52:36;8.50;;;6.50;;
63010;SDS011;49100;48.842;2.166;2022-10-16T01:55:25;8.50;;;6.75;;
63010;SDS011;49100;48.842;2.166;2022-10-16T01:58:13;9.75;;;7.00;;
63010;SDS011;49100;48.842;2.166;2022-10-16T02:00:58;8.75;;;8.00;;
63010;SDS011;49100;48.842;2.166;2022-10-16T02:03:42;7.50;;;7.50;;
63010;SDS011;49100;48.842;2.166;2022-10-16T02:06:29;6.50;;;6.25;;
63010;SDS011;49100;48.842;2.166;2022-10-16T02:09:13;8.25;;;5.75;;
63010;SDS011;49100;48.842;2.166;2022-10-16T02:12:02;9.00;;;7.00;;
63010;SDS011;49100;48.842;2.166;2022-10-16T02:14:51;11.25;;;6.25;;
63010;SDS011;49100;48.842;2.166;2022-10-16T02:17:36;11.75;;;8.75;;
63010;SDS011;49100;48.842;2.166;2022-10-16T02:20:23;10.00;;;7.00;;
63010;SDS011;49100;48.842;2.166;2022-10-16T02:23:12;11.75;;;9.25;;
63010;SDS011;49100;48.842;2.166;2022-10-16T02:26:09;13.00;;;8.25;;
63010;SDS011;49100;48.842;2.166;2022-10-16T02:29:02;7.50;;;6.00;;
63010;SDS011;49100;48.842;2.166;2022-10-16T02:31:51;8.00;;;7.00;;
63010;SDS011;49100;48.842;2.166;2022-10-16T02:34:47;7.00;;;5.00;;
63010;SDS011;49100;48.842;2.166;2022-10-16T02:37:33;9.25;;;7.75;;
63010;SDS011;49100;48.842;2.166;2022-10-16T02:40:18;15.75;;;7.25;;
63010;SDS011;49100;48.842;2.166;2022-10-16T02:43:03;13.75;;;7.25;;
63010;SDS011;49100;48.842;2.166;2022-10-16T02:45:49;9.25;;;7.75;;
63010;SDS011;49100;48.842;2.166;2022-10-16T02:48:33;8.25;;;7.75;;
63010;SDS011;49100;48.842;2.166;2022-10-16T02:51:18;9.50;;;8.00;;
63010;SDS011;49100;48.842;2.166;2022-10-16T02:54:03;11.50;;;7.00;;
63010;SDS011;49100;48.842;2.166;2022-10-16T02:56:47;13.00;;;9.75;;
63010;SDS011;49100;48.842;2.166;2022-10-16T02:59:32;11.25;;;8.00;;
63010;SDS011;49100;48.842;2.166;2022-10-16T03:02:16;12.00;;;7.75;;
63010;SDS011;49100;48.842;2.166;2022-10-16T03:05:01;7.25;;;6.25;;
63010;SDS011;49100;48.842;2.166;2022-10-16T03:07:46;8.75;;;6.00;;
63010;SDS011;49100;48.842;2.166;2022-10-16T03:10:30;8.00;;;7.50;;
63010;SDS011;49100;48.842;2.166;2022-10-16T03:13:15;11.00;;;9.00;;
63010;SDS011;49100;48.842;2.166;2022-10-16T03:16:01;10.75;;;7.75;;
63010;SDS011;49100;48.842;2.166;2022-10-16T03:18:47;9.25;;;7.75;;
63010;SDS011;49100;48.842;2.166;2022-10-16T03:21:33;10.25;;;7.75;;
63010;SDS011;49100;48.842;2.166;2022-10-16T03:24:17;11.25;;;9.50;;
63010;SDS011;49100;48.842;2.166;2022-10-16T03:27:02;10.75;;;6.25;;
63010;SDS011;49100;48.842;2.166;2022-10-16T03:29:46;9.00;;;6.50;;
63010;SDS011;49100;48.842;2.166;2022-10-16T03:32:31;11.75;;;7.25;;
63010;SDS011;49100;48.842;2.166;2022-10-16T03:35:16;10.00;;;8.50;;
63010;SDS011;49100;48.842;2.166;2022-10-16T03:38:00;12.75;;;8.25;;
63010;SDS011;49100;48.842;2.166;2022-10-16T03:40:45;12.25;;;6.50;;
63010;SDS011;49100;48.842;2.166;2022-10-16T03:43:30;10.50;;;9.00;;
63010;SDS011;49100;48.842;2.166;2022-10-16T03:46:14;14.00;;;9.25;;
63010;SDS011;49100;48.842;2.166;2022-10-16T03:48:58;7.75;;;7.25;;
63010;SDS011;49100;48.842;2.166;2022-10-16T03:51:43;11.75;;;10.00;;
63010;SDS011;49100;48.842;2.166;2022-10-16T03:54:27;14.00;;;9.00;;
63010;SDS011;49100;48.842;2.166;2022-10-16T03:57:11;9.00;;;7.25;;
63010;SDS011;49100;48.842;2.166;2022-10-16T03:59:56;8.00;;;7.00;;
63010;SDS011;49100;48.842;2.166;2022-10-16T04:02:40;8.25;;;7.50;;
63010;SDS011;49100;48.842;2.166;2022-10-16T04:05:25;6.75;;;6.75;;
63010;SDS011;49100;48.842;2.166;2022-10-16T04:08:10;14.75;;;7.00;;
63010;SDS011;49100;48.842;2.166;2022-10-16T04:10:54;11.75;;;7.00;;
63010;SDS011;49100;48.842;2.166;2022-10-16T04:13:39;8.75;;;6.75;;
63010;SDS011;49100;48.842;2.166;2022-10-16T04:16:24;11.50;;;9.00;;
63010;SDS011;49100;48.842;2.166;2022-10-16T04:19:09;10.75;;;8.25;;
63010;SDS011;49100;48.842;2.166;2022-10-16T04:21:54;9.25;;;6.75;;
63010;SDS011;49100;48.842;2.166;2022-10-16T04:24:38;11.00;;;8.75;;
63010;SDS011;49100;48.842;2.166;2022-10-16T04:27:23;8.50;;;7.75;;
63010;SDS011;49100;48.842;2.166;2022-10-16T04:30:07;15.25;;;10.00;;
63010;SDS011;49100;48.842;2.166;2022-10-16T04:32:52;12.50;;;8.50;;
63010;SDS011;49100;48.842;2.166;2022-10-16T04:35:37;9.50;;;7.75;;
63010;SDS011;49100;48.842;2.166;2022-10-16T04:38:22;13.50;;;9.50;;
63010;SDS011;49100;48.842;2.166;2022-10-16T04:41:07;13.00;;;10.25;;
63010;SDS011;49100;48.842;2.166;2022-10-16T04:43:51;10.25;;;8.50;;
63010;SDS011;49100;48.842;2.166;2022-10-16T04:46:36;12.00;;;8.00;;
63010;SDS011;49100;48.842;2.166;2022-10-16T04:49:20;13.75;;;12.00;;
63010;SDS011;49100;48.842;2.166;2022-10-16T04:52:04;13.75;;;10.25;;
63010;SDS011;49100;48.842;2.166;2022-10-16T04:54:49;11.75;;;11.00;;
63010;SDS011;49100;48.842;2.166;2022-10-16T04:57:34;15.25;;;10.50;;
63010;SDS011;49100;48.842;2.166;2022-10-16T05:00:18;12.50;;;11.00;;
63010;SDS011;49100;48.842;2.166;2022-10-16T05:03:03;15.75;;;10.25;;
63010;SDS011;49100;48.842;2.166;2022-10-16T05:05:50;13.50;;;10.00;;
63010;SDS011;49100;48.842;2.166;2022-10-16T05:08:35;14.25;;;11.25;;
63010;SDS011;49100;48.842;2.166;2022-10-16T05:11:19;12.50;;;9.75;;
63010;SDS011;49100;48.842;2.166;2022-10-16T05:14:04;14.50;;;11.00;;
63010;SDS011;49100;48.842;2.166;2022-10-16T05:16:48;13.25;;;10.25;;
63010;SDS011;49100;48.842;2.166;2022-10-16T05:19:33;12.00;;;9.75;;
63010;SDS011;49100;48.842;2.166;2022-10-16T05:22:17;12.50;;;9.00;;
63010;SDS011;49100;48.842;2.166;2022-10-16T05:25:01;12.25;;;10.50;;
63010;SDS011;49100;48.842;2.166;2022-10-16T05:27:47;12.50;;;9.25;;
63010;SDS011;49100;48.842;2.166;2022-10-16T05:30:32;13.25;;;10.75;;
63010;SDS011;49100;48.842;2.166;2022-10-16T05:33:16;11.75;;;11.50;;
63010;SDS011;49100;48.842;2.166;2022-10-16T05:36:04;16.75;;;12.50;;
63010;SDS011;49100;48.842;2.166;2022-10-16T06:29:58;19.50;;;17.50;;
63010;SDS011;49100;48.842;2.166;2022-10-16T06:32:43;23.00;;;18.75;;
63010;SDS011;49100;48.842;2.166;2022-10-16T06:35:28;25.00;;;21.00;;
63010;SDS011;49100;48.842;2.166;2022-10-16T06:38:13;23.50;;;17.75;;
63010;SDS011;49100;48.842;2.166;2022-10-16T06:40:58;18.00;;;16.25;;
63010;SDS011;49100;48.842;2.166;2022-10-16T06:43:42;24.75;;;19.25;;
63010;SDS011;49100;48.842;2.166;2022-10-16T06:46:29;22.25;;;17.75;;
63010;SDS011;49100;48.842;2.166;2022-10-16T06:49:13;20.50;;;16.50;;
63010;SDS011;49100;48.842;2.166;2022-10-16T06:52:05;21.75;;;18.25;;
63010;SDS011;49100;48.842;2.166;2022-10-16T06:54:50;22.75;;;18.00;;
63010;SDS011;49100;48.842;2.166;2022-10-16T06:57:34;18.50;;;16.75;;
63010;SDS011;49100;48.842;2.166;2022-10-16T07:00:19;23.00;;;18.50;;
63010;SDS011;49100;48.842;2.166;2022-10-16T07:03:04;23.50;;;17.25;;
63010;SDS011;49100;48.842;2.166;2022-10-16T07:05:49;20.00;;;18.00;;
63010;SDS011;49100;48.842;2.166;2022-10-16T07:08:34;19.75;;;17.25;;
63010;SDS011;49100;48.842;2.166;2022-10-16T07:11:21;22.25;;;21.00;;
63010;SDS011;49100;48.842;2.166;2022-10-16T07:14:14;19.00;;;17.25;;
63010;SDS011;49100;48.842;2.166;2022-10-16T07:17:00;21.00;;;19.00;;
63010;SDS011;49100;48.842;2.166;2022-10-16T07:19:45;18.00;;;16.00;;
63010;SDS011;49100;48.842;2.166;2022-10-16T07:22:30;19.00;;;13.00;;
63010;SDS011;49100;48.842;2.166;2022-10-16T07:25:14;15.50;;;14.00;;
63010;SDS011;49100;48.842;2.166;2022-10-16T07:27:59;19.00;;;15.75;;
63010;SDS011;49100;48.842;2.166;2022-10-16T07:30:43;18.50;;;15.50;;
63010;SDS011;49100;48.842;2.166;2022-10-16T07:33:28;14.75;;;13.75;;
63010;SDS011;49100;48.842;2.166;2022-10-16T07:36:14;19.50;;;15.75;;
63010;SDS011;49100;48.842;2.166;2022-10-16T07:38:59;16.25;;;13.25;;
63010;SDS011;49100;48.842;2.166;2022-10-16T07:41:44;15.00;;;13.25;;
63010;SDS011;49100;48.842;2.166;2022-10-16T07:44:28;12.50;;;12.50;;
63010;SDS011;49100;48.842;2.166;2022-10-16T07:47:13;15.00;;;14.00;;
63010;SDS011;49100;48.842;2.166;2022-10-16T07:49:58;12.25;;;11.75;;
63010;SDS011;49100;48.842;2.166;2022-10-16T07:52:43;18.75;;;16.25;;
63010;SDS011;49100;48.842;2.166;2022-10-16T07:55:27;19.75;;;17.25;;
63010;SDS011;49100;48.842;2.166;2022-10-16T07:58:12;23.00;;;22.50;;
63010;SDS011;49100;48.842;2.166;2022-10-16T08:00:57;18.50;;;17.00;;
63010;SDS011;49100;48.842;2.166;2022-10-16T08:03:43;16.00;;;13.00;;
63010;SDS011;49100;48.842;2.166;2022-10-16T08:06:30;14.50;;;14.50;;
63010;SDS011;49100;48.842;2.166;2022-10-16T08:09:20;20.25;;;17.00;;
63010;SDS011;49100;48.842;2.166;2022-10-16T08:12:04;14.75;;;11.75;;
63010;SDS011;49100;48.842;2.166;2022-10-16T08:14:49;13.25;;;11.00;;
63010;SDS011;49100;48.842;2.166;2022-10-16T08:17:33;14.00;;;12.50;;
63010;SDS011;49100;48.842;2.166;2022-10-16T08:20:18;17.00;;;14.50;;
63010;SDS011;49100;48.842;2.166;2022-10-16T08:23:03;16.50;;;14.25;;
63010;SDS011;49100;48.842;2.166;2022-10-16T08:25:48;11.00;;;10.25;;
63010;SDS011;49100;48.842;2.166;2022-10-16T08:28:33;12.25;;;11.50;;
63010;SDS011;49100;48.842;2.166;2022-10-16T08:31:18;14.00;;;10.00;;
63010;SDS011;49100;48.842;2.166;2022-10-16T08:34:03;13.50;;;11.25;;
63010;SDS011;49100;48.842;2.166;2022-10-16T08:36:48;11.25;;;11.00;;
63010;SDS011;49100;48.842;2.166;2022-10-16T08:39:33;15.50;;;14.00;;
63010;SDS011;49100;48.842;2.166;2022-10-16T08:48:52;12.75;;;10.75;;
63010;SDS011;49100;48.842;2.166;2022-10-16T08:51:38;12.00;;;10.25;;
63010;SDS011;49100;48.842;2.166;2022-10-16T08:54:26;10.00;;;6.75;;
63010;SDS011;49100;48.842;2.166;2022-10-16T08:57:26;12.25;;;10.25;;
63010;SDS011;49100;48.842;2.166;2022-10-16T09:00:13;12.25;;;12.00;;
63010;SDS011;49100;48.842;2.166;2022-10-16T09:03:22;14.25;;;10.75;;
63010;SDS011;49100;48.842;2.166;2022-10-16T09:06:31;12.50;;;10.00;;
63010;SDS011;49100;48.842;2.166;2022-10-16T09:18:43;10.25;;;7.50;;
63010;SDS011;49100;48.842;2.166;2022-10-16T09:21:31;11.50;;;11.50;;
63010;SDS011;49100;48.842;2.166;2022-10-16T09:24:25;11.00;;;9.75;;
63010;SDS011;49100;48.842;2.166;2022-10-16T09:27:11;14.50;;;10.75;;
63010;SDS011;49100;48.842;2.166;2022-10-16T09:29:56;11.00;;;11.00;;
63010;SDS011;49100;48.842;2.166;2022-10-16T09:32:41;13.50;;;10.75;;
63010;SDS011;49100;48.842;2.166;2022-10-16T09:35:32;15.25;;;11.75;;
63010;SDS011;49100;48.842;2.166;2022-10-16T09:38:25;11.50;;;10.25;;
63010;SDS011;49100;48.842;2.166;2022-10-16T09:41:16;11.50;;;11.25;;
63010;SDS011;49100;48.842;2.166;2022-10-16T09:44:03;11.50;;;11.25;;
63010;SDS011;49100;48.842;2.166;2022-10-16T09:47:00;16.00;;;12.75;;
63010;SDS011;49100;48.842;2.166;2022-10-16T09:52:45;18.00;;;15.00;;
63010;SDS011;49100;48.842;2.166;2022-10-16T09:55:31;15.75;;;13.50;;
63010;SDS011;49100;48.842;2.166;2022-10-16T09:58:16;14.75;;;11.75;;
63010;SDS011;49100;48.842;2.166;2022-10-16T10:01:00;15.25;;;12.25;;
63010;SDS011;49100;48.842;2.166;2022-10-16T10:03:45;12.25;;;12.25;;
63010;SDS011;49100;48.842;2.166;2022-10-16T10:06:33;13.75;;;8.50;;
63010;SDS011;49100;48.842;2.166;2022-10-16T10:09:30;15.50;;;11.75;;
63010;SDS011;49100;48.842;2.166;2022-10-16T10:12:19;15.00;;;13.50;;
63010;SDS011;49100;48.842;2.166;2022-10-16T10:15:11;11.75;;;11.00;;
63010;SDS011;49100;48.842;2.166;2022-10-16T10:17:57;11.50;;;11.50;;
63010;SDS011;49100;48.842;2.166;2022-10-16T10:20:42;14.00;;;12.75;;
63010;SDS011;49100;48.842;2.166;2022-10-16T10:23:27;16.00;;;14.00;;
63010;SDS011;49100;48.842;2.166;2022-10-16T10:26:15;16.00;;;11.75;;
63010;SDS011;49100;48.842;2.166;2022-10-16T10:32:19;16.25;;;13.75;;
63010;SDS011;49100;48.842;2.166;2022-10-16T10:50:23;15.50;;;14.00;;
63010;SDS011;49100;48.842;2.166;2022-10-16T11:08:39;16.50;;;12.75;;
63010;SDS011;49100;48.842;2.166;2022-10-16T11:11:46;16.50;;;12.50;;
63010;SDS011;49100;48.842;2.166;2022-10-16T11:15:20;14.50;;;12.25;;
63010;SDS011;49100;48.842;2.166;2022-10-16T11:20:53;13.00;;;12.00;;
63010;SDS011;49100;48.842;2.166;2022-10-16T11:23:42;15.50;;;13.75;;
63010;SDS011;49100;48.842;2.166;2022-10-16T11:26:41;15.50;;;15.25;;
63010;SDS011;49100;48.842;2.166;2022-10-16T11:29:28;18.50;;;15.50;;
63010;SDS011;49100;48.842;2.166;2022-10-16T11:32:25;16.50;;;14.25;;
63010;SDS011;49100;48.842;2.166;2022-10-16T11:35:17;16.00;;;15.00;;
63010;SDS011;49100;48.842;2.166;2022-10-16T11:38:25;16.50;;;13.75;;
63010;SDS011;49100;48.842;2.166;2022-10-16T11:41:22;15.00;;;12.75;;
63010;SDS011;49100;48.842;2.166;2022-10-16T11:50:24;11.50;;;11.50;;
63010;SDS011;49100;48.842;2.166;2022-10-16T11:54:02;15.50;;;14.75;;
63010;SDS011;49100;48.842;2.166;2022-10-16T11:56:53;17.50;;;12.75;;
63010;SDS011;49100;48.842;2.166;2022-10-16T12:02:38;11.75;;;10.50;;
63010;SDS011;49100;48.842;2.166;2022-10-16T12:08:42;11.75;;;11.50;;
63010;SDS011;49100;48.842;2.166;2022-10-16T12:16:57;12.00;;;12.00;;
63010;SDS011;49100;48.842;2.166;2022-10-16T12:25:53;12.00;;;10.50;;
63010;SDS011;49100;48.842;2.166;2022-10-16T12:28:39;12.25;;;12.25;;
63010;SDS011;49100;48.842;2.166;2022-10-16T12:31:24;14.25;;;12.75;;
63010;SDS011;49100;48.842;2.166;2022-10-16T12:34:32;11.75;;;10.25;;
63010;SDS011;49100;48.842;2.166;2022-10-16T12:37:34;15.50;;;14.75;;
63010;SDS011;49100;48.842;2.166;2022-10-16T12:48:53;12.25;;;10.00;;
63010;SDS011;49100;48.842;2.166;2022-10-16T12:52:29;10.75;;;9.25;;
63010;SDS011;49100;48.842;2.166;2022-10-16T12:55:21;11.00;;;8.50;;
63010;SDS011;49100;48.842;2.166;2022-10-16T12:58:53;12.25;;;9.00;;
63010;SDS011;49100;48.842;2.166;2022-10-16T13:01:32;14.00;;;10.75;;
63010;SDS011;49100;48.842;2.166;2022-10-16T13:07:46;14.25;;;10.50;;
63010;SDS011;49100;48.842;2.166;2022-10-16T13:22:51;12.50;;;10.25;;
63010;SDS011;49100;48.842;2.166;2022-10-16T13:28:47;12.75;;;10.25;;
63010;SDS011;49100;48.842;2.166;2022-10-16T13:31:32;11.75;;;10.25;;
63010;SDS011;49100;48.842;2.166;2022-10-16T13:34:19;14.00;;;13.50;;
63010;SDS011;49100;48.842;2.166;2022-10-16T13:37:15;11.75;;;11.00;;
63010;SDS011;49100;48.842;2.166;2022-10-16T13:40:26;10.75;;;8.50;;
63010;SDS011;49100;48.842;2.166;2022-10-16T13:43:10;10.25;;;8.50;;
63010;SDS011;49100;48.842;2.166;2022-10-16T13:45:59;9.75;;;9.00;;
63010;SDS011;49100;48.842;2.166;2022-10-16T13:48:58;11.00;;;8.25;;
63010;SDS011;49100;48.842;2.166;2022-10-16T13:51:58;10.50;;;9.50;;
63010;SDS011;49100;48.842;2.166;2022-10-16T13:54:44;13.25;;;9.75;;
63010;SDS011;49100;48.842;2.166;2022-10-16T13:57:29;11.75;;;9.00;;
63010;SDS011;49100;48.842;2.166;2022-10-16T14:00:18;7.75;;;7.50;;
63010;SDS011;49100;48.842;2.166;2022-10-16T14:03:14;11.75;;;10.50;;
63010;SDS011;49100;48.842;2.166;2022-10-16T14:06:00;10.25;;;9.50;;
63010;SDS011;49100;48.842;2.166;2022-10-16T14:08:48;9.25;;;7.25;;
63010;SDS011;49100;48.842;2.166;2022-10-16T14:11:46;11.25;;;9.00;;
63010;SDS011;49100;48.842;2.166;2022-10-16T14:14:34;10.50;;;8.50;;
63010;SDS011;49100;48.842;2.166;2022-10-16T14:17:25;7.00;;;6.50;;
63010;SDS011;49100;48.842;2.166;2022-10-16T14:20:14;10.25;;;10.25;;
63010;SDS011;49100;48.842;2.166;2022-10-16T14:23:01;16.25;;;9.75;;
63010;SDS011;49100;48.842;2.166;2022-10-16T14:25:48;11.25;;;11.25;;
63010;SDS011;49100;48.842;2.166;2022-10-16T14:28:33;12.25;;;10.50;;
63010;SDS011;49100;48.842;2.166;2022-10-16T14:31:31;14.25;;;8.50;;
63010;SDS011;49100;48.842;2.166;2022-10-16T14:34:30;16.00;;;8.75;;
63010;SDS011;49100;48.842;2.166;2022-10-16T14:37:22;17.50;;;9.50;;
63010;SDS011;49100;48.842;2.166;2022-10-16T14:40:14;12.25;;;10.25;;
63010;SDS011;49100;48.842;2.166;2022-10-16T14:43:00;13.00;;;11.25;;
63010;SDS011;49100;48.842;2.166;2022-10-16T14:45:49;11.25;;;10.25;;
63010;SDS011;49100;48.842;2.166;2022-10-16T14:48:39;11.75;;;10.00;;
63010;SDS011;49100;48.842;2.166;2022-10-16T14:51:28;8.75;;;7.00;;
63010;SDS011;49100;48.842;2.166;2022-10-16T14:54:14;8.25;;;6.00;;
63010;SDS011;49100;48.842;2.166;2022-10-16T14:57:00;7.75;;;5.75;;
63010;SDS011;49100;48.842;2.166;2022-10-16T14:59:45;7.75;;;6.50;;
63010;SDS011;49100;48.842;2.166;2022-10-16T15:02:34;8.25;;;6.50;;
63010;SDS011;49100;48.842;2.166;2022-10-16T15:05:26;9.00;;;6.50;;
63010;SDS011;49100;48.842;2.166;2022-10-16T15:08:11;13.75;;;8.00;;
63010;SDS011;49100;48.842;2.166;2022-10-16T15:10:57;7.00;;;7.00;;
63010;SDS011;49100;48.842;2.166;2022-10-16T15:13:42;9.50;;;5.50;;
63010;SDS011;49100;48.842;2.166;2022-10-16T15:16:27;7.50;;;5.50;;
63010;SDS011;49100;48.842;2.166;2022-10-16T15:19:12;9.25;;;5.25;;
63010;SDS011;49100;48.842;2.166;2022-10-16T15:21:57;6.75;;;5.25;;
63010;SDS011;49100;48.842;2.166;2022-10-16T15:24:42;10.75;;;8.00;;
63010;SDS011;49100;48.842;2.166;2022-10-16T15:27:27;7.00;;;6.00;;
63010;SDS011;49100;48.842;2.166;2022-10-16T15:30:11;8.00;;;8.00;;
63010;SDS011;49100;48.842;2.166;2022-10-16T15:32:56;12.25;;;6.00;;
63010;SDS011;49100;48.842;2.166;2022-10-16T15:35:41;10.00;;;7.00;;
63010;SDS011;49100;48.842;2.166;2022-10-16T15:38:26;8.00;;;8.00;;
63010;SDS011;49100;48.842;2.166;2022-10-16T15:41:12;7.50;;;6.75;;
63010;SDS011;49100;48.842;2.166;2022-10-16T15:43:57;8.00;;;5.00;;
63010;SDS011;49100;48.842;2.166;2022-10-16T15:46:41;8.25;;;8.25;;
63010;SDS011;49100;48.842;2.166;2022-10-16T15:49:26;16.00;;;14.75;;
63010;SDS011;49100;48.842;2.166;2022-10-16T15:52:11;23.75;;;19.75;;
63010;SDS011;49100;48.842;2.166;2022-10-16T15:54:56;19.25;;;13.75;;
63010;SDS011;49100;48.842;2.166;2022-10-16T15:57:41;17.75;;;14.00;;
63010;SDS011;49100;48.842;2.166;2022-10-16T16:00:26;14.75;;;11.00;;
63010;SDS011;49100;48.842;2.166;2022-10-16T16:03:12;15.75;;;11.50;;
63010;SDS011;49100;48.842;2.166;2022-10-16T16:05:57;12.75;;;10.50;;
63010;SDS011;49100;48.842;2.166;2022-10-16T16:08:41;13.25;;;8.25;;
63010;SDS011;49100;48.842;2.166;2022-10-16T16:11:26;10.25;;;9.00;;
63010;SDS011;49100;48.842;2.166;2022-10-16T16:14:12;9.25;;;8.75;;
63010;SDS011;49100;48.842;2.166;2022-10-16T16:16:58;11.50;;;11.00;;
63010;SDS011;49100;48.842;2.166;2022-10-16T16:19:43;7.50;;;7.50;;
63010;SDS011;49100;48.842;2.166;2022-10-16T16:22:27;14.75;;;7.50;;
63010;SDS011;49100;48.842;2.166;2022-10-16T16:25:13;12.50;;;8.75;;
63010;SDS011;49100;48.842;2.166;2022-10-16T16:27:57;11.00;;;6.75;;
63010;SDS011;49100;48.842;2.166;2022-10-16T16:30:42;10.50;;;8.00;;
63010;SDS011;49100;48.842;2.166;2022-10-16T16:33:27;13.50;;;8.50;;
63010;SDS011;49100;48.842;2.166;2022-10-16T16:36:11;13.50;;;10.00;;
63010;SDS011;49100;48.842;2.166;2022-10-16T16:38:57;10.50;;;10.00;;
63010;SDS011;49100;48.842;2.166;2022-10-16T16:41:42;9.75;;;8.50;;
63010;SDS011;49100;48.842;2.166;2022-10-16T16:44:26;10.50;;;7.25;;
63010;SDS011;49100;48.842;2.166;2022-10-16T16:47:11;11.75;;;8.25;;
63010;SDS011;49100;48.842;2.166;2022-10-16T16:49:55;12.25;;;8.25;;
63010;SDS011;49100;48.842;2.166;2022-10-16T16:52:40;11.25;;;8.75;;
63010;SDS011;49100;48.842;2.166;2022-10-16T16:55:25;9.75;;;9.00;;
63010;SDS011;49100;48.842;2.166;2022-10-16T16:58:09;0.00;;;0.00;;
63010;SDS011;49100;48.842;2.166;2022-10-16T17:00:53;10.00;;;7.75;;
63010;SDS011;49100;48.842;2.166;2022-10-16T17:03:41;12.50;;;9.25;;
63010;SDS011;49100;48.842;2.166;2022-10-16T17:06:33;9.25;;;6.75;;
63010;SDS011;49100;48.842;2.166;2022-10-16T17:09:17;10.25;;;7.75;;
63010;SDS011;49100;48.842;2.166;2022-10-16T17:12:02;5.75;;;1.00;;
63010;SDS011;49100;48.842;2.166;2022-10-16T17:14:47;15.50;;;11.75;;
63010;SDS011;49100;48.842;2.166;2022-10-16T17:17:32;12.00;;;7.00;;
63010;SDS011;49100;48.842;2.166;2022-10-16T17:20:16;9.25;;;8.50;;
63010;SDS011;49100;48.842;2.166;2022-10-16T17:23:01;11.25;;;9.00;;
63010;SDS011;49100;48.842;2.166;2022-10-16T17:25:46;12.25;;;9.50;;
63010;SDS011;49100;48.842;2.166;2022-10-16T17:28:31;10.00;;;8.50;;
63010;SDS011;49100;48.842;2.166;2022-10-16T17:31:17;11.00;;;9.75;;
63010;SDS011;49100;48.842;2.166;2022-10-16T17:34:05;10.00;;;9.00;;
63010;SDS011;49100;48.842;2.166;2022-10-16T17:36:50;9.25;;;9.25;;
63010;SDS011;49100;48.842;2.166;2022-10-16T17:39:36;13.25;;;9.25;;
63010;SDS011;49100;48.842;2.166;2022-10-16T17:42:21;9.50;;;9.50;;
63010;SDS011;49100;48.842;2.166;2022-10-16T17:45:06;10.75;;;10.75;;
63010;SDS011;49100;48.842;2.166;2022-10-16T17:47:51;12.50;;;9.00;;
63010;SDS011;49100;48.842;2.166;2022-10-16T17:50:40;13.25;;;8.00;;
63010;SDS011;49100;48.842;2.166;2022-10-16T17:53:25;8.50;;;8.50;;
63010;SDS011;49100;48.842;2.166;2022-10-16T17:56:11;9.25;;;8.00;;
63010;SDS011;49100;48.842;2.166;2022-10-16T17:58:58;12.25;;;9.00;;
63010;SDS011;49100;48.842;2.166;2022-10-16T18:01:43;11.50;;;6.75;;
63010;SDS011;49100;48.842;2.166;2022-10-16T18:04:28;10.25;;;7.50;;
63010;SDS011;49100;48.842;2.166;2022-10-16T18:07:13;14.00;;;11.75;;
63010;SDS011;49100;48.842;2.166;2022-10-16T18:09:58;11.25;;;9.25;;
63010;SDS011;49100;48.842;2.166;2022-10-16T18:12:42;13.00;;;10.00;;
63010;SDS011;49100;48.842;2.166;2022-10-16T18:15:26;13.50;;;10.75;;
63010;SDS011;49100;48.842;2.166;2022-10-16T18:18:11;16.75;;;14.50;;
63010;SDS011;49100;48.842;2.166;2022-10-16T18:20:59;11.75;;;11.00;;
63010;SDS011;49100;48.842;2.166;2022-10-16T18:23:45;10.25;;;8.75;;
63010;SDS011;49100;48.842;2.166;2022-10-16T18:26:30;11.25;;;10.00;;
63010;SDS011;49100;48.842;2.166;2022-10-16T18:29:16;13.25;;;8.50;;
63010;SDS011;49100;48.842;2.166;2022-10-16T18:32:00;9.75;;;7.50;;
63010;SDS011;49100;48.842;2.166;2022-10-16T18:34:45;9.25;;;8.50;;
63010;SDS011;49100;48.842;2.166;2022-10-16T18:37:30;16.00;;;10.50;;
63010;SDS011;49100;48.842;2.166;2022-10-16T18:40:14;17.50;;;11.50;;
63010;SDS011;49100;48.842;2.166;2022-10-16T18:42:58;10.50;;;10.50;;
63010;SDS011;49100;48.842;2.166;2022-10-16T18:45:43;12.75;;;11.00;;
63010;SDS011;49100;48.842;2.166;2022-10-16T18:48:28;13.75;;;13.00;;
63010;SDS011;49100;48.842;2.166;2022-10-16T18:51:20;14.75;;;13.25;;
63010;SDS011;49100;48.842;2.166;2022-10-16T18:54:08;18.25;;;13.00;;
63010;SDS011;49100;48.842;2.166;2022-10-16T18:56:54;15.00;;;13.25;;
63010;SDS011;49100;48.842;2.166;2022-10-16T18:59:39;15.00;;;10.25;;
63010;SDS011;49100;48.842;2.166;2022-10-16T19:02:23;16.25;;;11.50;;
63010;SDS011;49100;48.842;2.166;2022-10-16T19:05:08;13.50;;;9.50;;
63010;SDS011;49100;48.842;2.166;2022-10-16T19:07:54;11.50;;;10.75;;
63010;SDS011;49100;48.842;2.166;2022-10-16T19:10:39;13.25;;;9.50;;
63010;SDS011;49100;48.842;2.166;2022-10-16T19:13:26;15.00;;;11.75;;
63010;SDS011;49100;48.842;2.166;2022-10-16T19:16:12;10.50;;;8.00;;
63010;SDS011;49100;48.842;2.166;2022-10-16T19:19:02;14.25;;;10.50;;
63010;SDS011;49100;48.842;2.166;2022-10-16T19:21:48;12.75;;;12.00;;
63010;SDS011;49100;48.842;2.166;2022-10-16T19:24:39;16.25;;;12.75;;
63010;SDS011;49100;48.842;2.166;2022-10-16T19:27:24;10.00;;;8.50;;
63010;SDS011;49100;48.842;2.166;2022-10-16T19:30:08;16.25;;;11.50;;